sensor_id;sensor_type;location;lat;lon;timestamp;noise_LAeq;noise_LA_min;noise_LA_max;noise_LA01;noise_LA95
84579;Laerm;74804;52.100;5.116;2023-12-14T00:00:18;33.32;30.44;42.48;;
84579;Laerm;74804;52.100;5.116;2023-12-14T00:02:49;34.92;30.24;48.13;;
84579;Laerm;74804;52.100;5.116;2023-12-14T00:05:21;36.46;31.22;52.91;;
84579;Laerm;74804;52.100;5.116;2023-12-14T00:07:52;39.51;31.94;53.82;;
84579;Laerm;74804;52.100;5.116;2023-12-14T00:10:26;34.15;30.98;51.75;;
84579;Laerm;74804;52.100;5.116;2023-12-14T00:12:57;36.15;32.54;42.57;;
84579;Laerm;74804;52.100;5.116;2023-12-14T00:15:28;36.59;32.91;40.80;;
84579;Laerm;74804;52.100;5.116;2023-12-14T00:17:59;33.49;31.19;38.92;;
84579;Laerm;74804;52.100;5.116;2023-12-14T00:20:31;36.91;30.89;47.71;;
84579;Laerm;74804;52.100;5.116;2023-12-14T00:23:02;35.34;30.94;52.53;;
84579;Laerm;74804;52.100;5.116;2023-12-14T00:25:36;35.93;30.81;45.53;;
84579;Laerm;74804;52.100;5.116;2023-12-14T00:28:07;32.80;30.80;37.72;;
84579;Laerm;74804;52.100;5.116;2023-12-14T00:30:38;37.84;31.47;52.88;;
84579;Laerm;74804;52.100;5.116;2023-12-14T00:33:09;36.39;31.59;45.15;;
84579;Laerm;74804;52.100;5.116;2023-12-14T00:35:41;32.64;30.35;45.10;;
84579;Laerm;74804;52.100;5.116;2023-12-14T00:38:12;32.30;30.67;44.71;;
84579;Laerm;74804;52.100;5.116;2023-12-14T00:40:46;37.08;30.83;47.93;;
84579;Laerm;74804;52.100;5.116;2023-12-14T00:43:17;32.61;30.67;38.21;;
84579;Laerm;74804;52.100;5.116;2023-12-14T00:45:48;36.49;31.82;45.58;;
84579;Laerm;74804;52.100;5.116;2023-12-14T00:48:20;33.49;30.64;42.04;;
84579;Laerm;74804;52.100;5.116;2023-12-14T00:50:51;34.72;31.00;51.40;;
84579;Laerm;74804;52.100;5.116;2023-12-14T00:53:22;34.44;31.50;44.59;;
84579;Laerm;74804;52.100;5.116;2023-12-14T00:55:56;33.57;30.86;39.32;;
84579;Laerm;74804;52.100;5.116;2023-12-14T00:58:27;34.26;31.82;42.57;;
84579;Laerm;74804;52.100;5.116;2023-12-14T01:00:58;33.71;31.00;39.35;;
84579;Laerm;74804;52.100;5.116;2023-12-14T01:03:30;36.81;32.64;50.91;;
84579;Laerm;74804;52.100;5.116;2023-12-14T01:06:01;36.50;31.30;48.53;;
84579;Laerm;74804;52.100;5.116;2023-12-14T01:08:32;36.97;31.94;52.08;;
84579;Laerm;74804;52.100;5.116;2023-12-14T01:11:06;35.71;31.34;48.59;;
84579;Laerm;74804;52.100;5.116;2023-12-14T01:13:38;34.48;30.86;43.51;;
84579;Laerm;74804;52.100;5.116;2023-12-14T01:16:09;33.06;30.62;41.13;;
84579;Laerm;74804;52.100;5.116;2023-12-14T01:18:41;31.90;30.26;36.33;;
84579;Laerm;74804;52.100;5.116;2023-12-14T01:21:12;34.83;30.43;44.23;;
84579;Laerm;74804;52.100;5.116;2023-12-14T01:23:43;35.89;30.42;45.51;;
84579;Laerm;74804;52.100;5.116;2023-12-14T01:26:17;37.42;29.85;54.04;;
84579;Laerm;74804;52.100;5.116;2023-12-14T01:28:48;32.29;29.81;38.98;;
84579;Laerm;74804;52.100;5.116;2023-12-14T01:31:20;32.00;29.91;37.88;;
84579;Laerm;74804;52.100;5.116;2023-12-14T01:33:52;32.86;30.60;41.80;;
84579;Laerm;74804;52.100;5.116;2023-12-14T01:36:24;33.62;29.84;48.31;;
84579;Laerm;74804;52.100;5.116;2023-12-14T01:38:55;34.57;30.79;46.72;;
84579;Laerm;74804;52.100;5.116;2023-12-14T01:41:29;33.24;30.75;37.03;;
84579;Laerm;74804;52.100;5.116;2023-12-14T01:44:00;37.87;31.52;48.05;;
84579;Laerm;74804;52.100;5.116;2023-12-14T01:46:32;34.22;30.81;39.83;;
84579;Laerm;74804;52.100;5.116;2023-12-14T01:49:03;31.83;30.10;42.81;;
84579;Laerm;74804;52.100;5.116;2023-12-14T01:51:34;33.04;29.79;38.75;;
84579;Laerm;74804;52.100;5.116;2023-12-14T01:54:06;32.01;30.12;38.36;;
84579;Laerm;74804;52.100;5.116;2023-12-14T01:56:39;33.29;30.21;44.87;;
84579;Laerm;74804;52.100;5.116;2023-12-14T01:59:11;32.48;30.26;42.90;;
84579;Laerm;74804;52.100;5.116;2023-12-14T02:01:44;32.55;30.09;40.59;;
84579;Laerm;74804;52.100;5.116;2023-12-14T02:04:15;31.81;29.93;36.18;;
84579;Laerm;74804;52.100;5.116;2023-12-14T02:09:14;31.67;29.66;37.63;;
84579;Laerm;74804;52.100;5.116;2023-12-14T02:11:48;32.95;30.11;39.08;;
84579;Laerm;74804;52.100;5.116;2023-12-14T02:14:21;32.64;29.94;41.53;;
84579;Laerm;74804;52.100;5.116;2023-12-14T02:16:52;34.92;29.94;47.62;;
84579;Laerm;74804;52.100;5.116;2023-12-14T02:19:23;33.32;30.38;55.04;;
84579;Laerm;74804;52.100;5.116;2023-12-14T02:21:55;31.85;29.91;37.71;;
84579;Laerm;74804;52.100;5.116;2023-12-14T02:24:29;31.79;30.29;34.28;;
84579;Laerm;74804;52.100;5.116;2023-12-14T02:27:00;32.17;30.03;45.07;;
84579;Laerm;74804;52.100;5.116;2023-12-14T02:29:31;32.40;30.02;39.98;;
84579;Laerm;74804;52.100;5.116;2023-12-14T02:32:02;33.90;30.11;48.74;;
84579;Laerm;74804;52.100;5.116;2023-12-14T02:34:34;32.85;30.43;40.65;;
84579;Laerm;74804;52.100;5.116;2023-12-14T02:37:05;31.17;29.72;37.09;;
84579;Laerm;74804;52.100;5.116;2023-12-14T02:39:39;31.24;29.58;38.91;;
84579;Laerm;74804;52.100;5.116;2023-12-14T02:42:10;31.52;29.58;37.45;;
84579;Laerm;74804;52.100;5.116;2023-12-14T02:44:41;33.07;29.95;39.78;;
84579;Laerm;74804;52.100;5.116;2023-12-14T02:47:12;31.71;29.97;42.55;;
84579;Laerm;74804;52.100;5.116;2023-12-14T02:49:44;32.47;30.07;41.83;;
84579;Laerm;74804;52.100;5.116;2023-12-14T02:52:15;33.46;29.80;41.81;;
84579;Laerm;74804;52.100;5.116;2023-12-14T02:54:49;34.33;30.21;47.82;;
84579;Laerm;74804;52.100;5.116;2023-12-14T02:57:20;32.72;29.81;39.96;;
84579;Laerm;74804;52.100;5.116;2023-12-14T02:59:51;32.65;30.20;37.90;;
84579;Laerm;74804;52.100;5.116;2023-12-14T03:02:22;34.50;29.73;48.42;;
84579;Laerm;74804;52.100;5.116;2023-12-14T03:04:53;34.52;30.01;47.95;;
84579;Laerm;74804;52.100;5.116;2023-12-14T03:07:24;31.39;29.61;40.08;;
84579;Laerm;74804;52.100;5.116;2023-12-14T03:09:58;35.74;29.93;48.76;;
84579;Laerm;74804;52.100;5.116;2023-12-14T03:12:29;32.44;30.15;41.28;;
84579;Laerm;74804;52.100;5.116;2023-12-14T03:15:00;32.51;30.41;45.58;;
84579;Laerm;74804;52.100;5.116;2023-12-14T03:17:32;32.61;29.73;46.31;;
84579;Laerm;74804;52.100;5.116;2023-12-14T03:20:03;33.44;29.81;48.46;;
84579;Laerm;74804;52.100;5.116;2023-12-14T03:22:34;33.04;30.46;40.73;;
84579;Laerm;74804;52.100;5.116;2023-12-14T03:25:09;33.61;30.72;37.87;;
84579;Laerm;74804;52.100;5.116;2023-12-14T03:27:38;31.81;30.02;37.11;;
84579;Laerm;74804;52.100;5.116;2023-12-14T03:30:10;32.66;30.62;36.70;;
84579;Laerm;74804;52.100;5.116;2023-12-14T03:32:41;32.36;30.21;38.06;;
84579;Laerm;74804;52.100;5.116;2023-12-14T03:35:12;32.93;30.20;39.78;;
84579;Laerm;74804;52.100;5.116;2023-12-14T03:37:43;33.96;30.38;43.08;;
84579;Laerm;74804;52.100;5.116;2023-12-14T03:40:17;34.91;30.44;44.03;;
84579;Laerm;74804;52.100;5.116;2023-12-14T03:42:49;36.03;31.38;45.89;;
84579;Laerm;74804;52.100;5.116;2023-12-14T03:45:20;33.63;30.55;42.97;;
84579;Laerm;74804;52.100;5.116;2023-12-14T03:47:51;36.19;30.40;48.00;;
84579;Laerm;74804;52.100;5.116;2023-12-14T03:50:22;32.60;30.64;38.21;;
84579;Laerm;74804;52.100;5.116;2023-12-14T03:52:53;36.01;30.31;46.74;;
84579;Laerm;74804;52.100;5.116;2023-12-14T03:55:27;32.72;30.24;39.96;;
84579;Laerm;74804;52.100;5.116;2023-12-14T03:57:58;33.81;31.06;38.22;;
84579;Laerm;74804;52.100;5.116;2023-12-14T04:00:29;33.37;31.25;46.19;;
84579;Laerm;74804;52.100;5.116;2023-12-14T04:03:00;36.33;32.77;46.52;;
84579;Laerm;74804;52.100;5.116;2023-12-14T04:05:31;33.58;31.27;41.50;;
84579;Laerm;74804;52.100;5.116;2023-12-14T04:08:03;32.88;30.65;47.92;;
84579;Laerm;74804;52.100;5.116;2023-12-14T04:10:37;33.86;31.56;39.20;;
84579;Laerm;74804;52.100;5.116;2023-12-14T04:13:08;33.57;30.49;41.59;;
84579;Laerm;74804;52.100;5.116;2023-12-14T04:15:39;33.50;30.71;38.89;;
84579;Laerm;74804;52.100;5.116;2023-12-14T04:18:10;32.76;30.44;43.46;;
84579;Laerm;74804;52.100;5.116;2023-12-14T04:20:41;33.17;30.73;39.47;;
84579;Laerm;74804;52.100;5.116;2023-12-14T04:23:12;32.53;30.28;46.59;;
84579;Laerm;74804;52.100;5.116;2023-12-14T04:25:46;35.56;31.47;47.77;;
84579;Laerm;74804;52.100;5.116;2023-12-14T04:28:17;36.16;31.24;41.70;;
84579;Laerm;74804;52.100;5.116;2023-12-14T04:30:48;34.09;30.57;39.67;;
84579;Laerm;74804;52.100;5.116;2023-12-14T04:33:20;31.91;30.39;34.67;;
84579;Laerm;74804;52.100;5.116;2023-12-14T04:35:51;32.95;30.62;37.11;;
84579;Laerm;74804;52.100;5.116;2023-12-14T04:38:22;34.19;31.26;41.30;;
84579;Laerm;74804;52.100;5.116;2023-12-14T04:40:56;33.89;31.20;42.13;;
84579;Laerm;74804;52.100;5.116;2023-12-14T04:43:27;33.05;30.96;38.78;;
84579;Laerm;74804;52.100;5.116;2023-12-14T04:45:59;37.17;31.14;54.35;;
84579;Laerm;74804;52.100;5.116;2023-12-14T04:48:31;35.88;31.38;47.38;;
84579;Laerm;74804;52.100;5.116;2023-12-14T04:51:02;36.75;31.81;49.33;;
84579;Laerm;74804;52.100;5.116;2023-12-14T04:53:33;34.73;31.24;49.64;;
84579;Laerm;74804;52.100;5.116;2023-12-14T04:56:09;38.77;31.46;54.82;;
84579;Laerm;74804;52.100;5.116;2023-12-14T04:58:40;38.65;31.78;52.25;;
84579;Laerm;74804;52.100;5.116;2023-12-14T05:01:12;35.78;31.86;41.25;;
84579;Laerm;74804;52.100;5.116;2023-12-14T05:03:43;34.96;32.05;49.55;;
84579;Laerm;74804;52.100;5.116;2023-12-14T05:06:14;36.50;32.15;48.77;;
84579;Laerm;74804;52.100;5.116;2023-12-14T05:08:45;35.45;32.70;42.47;;
84579;Laerm;74804;52.100;5.116;2023-12-14T05:11:19;34.88;32.39;40.31;;
84579;Laerm;74804;52.100;5.116;2023-12-14T05:13:50;36.72;32.56;47.19;;
84579;Laerm;74804;52.100;5.116;2023-12-14T05:16:24;36.60;32.47;48.84;;
84579;Laerm;74804;52.100;5.116;2023-12-14T05:18:56;36.68;32.76;46.79;;
84579;Laerm;74804;52.100;5.116;2023-12-14T05:21:27;36.36;32.79;47.32;;
84579;Laerm;74804;52.100;5.116;2023-12-14T05:23:58;38.59;33.75;49.55;;
84579;Laerm;74804;52.100;5.116;2023-12-14T05:26:33;38.22;33.60;45.51;;
84579;Laerm;74804;52.100;5.116;2023-12-14T05:29:04;37.37;33.59;45.81;;
84579;Laerm;74804;52.100;5.116;2023-12-14T05:31:35;45.62;33.62;61.40;;
84579;Laerm;74804;52.100;5.116;2023-12-14T05:34:06;36.45;32.97;43.69;;
84579;Laerm;74804;52.100;5.116;2023-12-14T05:36:37;35.24;32.99;43.05;;
84579;Laerm;74804;52.100;5.116;2023-12-14T05:39:08;36.11;33.77;41.64;;
84579;Laerm;74804;52.100;5.116;2023-12-14T05:41:42;40.52;33.60;55.77;;
84579;Laerm;74804;52.100;5.116;2023-12-14T05:44:13;37.09;33.30;45.99;;
84579;Laerm;74804;52.100;5.116;2023-12-14T05:46:45;41.03;36.10;50.37;;
84579;Laerm;74804;52.100;5.116;2023-12-14T05:49:16;41.50;34.50;53.32;;
84579;Laerm;74804;52.100;5.116;2023-12-14T05:51:47;38.71;33.54;46.10;;
84579;Laerm;74804;52.100;5.116;2023-12-14T05:54:18;39.85;33.51;50.68;;
84579;Laerm;74804;52.100;5.116;2023-12-14T05:56:52;42.13;33.87;61.34;;
84579;Laerm;74804;52.100;5.116;2023-12-14T05:59:23;38.33;33.74;51.71;;
84579;Laerm;74804;52.100;5.116;2023-12-14T06:01:56;38.79;34.67;51.04;;
84579;Laerm;74804;52.100;5.116;2023-12-14T06:04:27;39.07;34.24;48.51;;
84579;Laerm;74804;52.100;5.116;2023-12-14T06:06:58;39.27;35.29;49.08;;
84579;Laerm;74804;52.100;5.116;2023-12-14T06:09:30;40.27;33.99;58.49;;
84579;Laerm;74804;52.100;5.116;2023-12-14T06:12:05;41.15;34.19;54.52;;
84579;Laerm;74804;52.100;5.116;2023-12-14T06:14:36;42.37;35.70;56.94;;
84579;Laerm;74804;52.100;5.116;2023-12-14T06:17:07;45.45;34.54;58.38;;
84579;Laerm;74804;52.100;5.116;2023-12-14T06:19:39;42.49;37.50;64.69;;
84579;Laerm;74804;52.100;5.116;2023-12-14T06:22:10;45.27;38.20;56.41;;
84579;Laerm;74804;52.100;5.116;2023-12-14T06:24:41;45.87;40.27;54.44;;
84579;Laerm;74804;52.100;5.116;2023-12-14T06:29:45;50.35;40.71;60.98;;
84579;Laerm;74804;52.100;5.116;2023-12-14T06:32:16;51.14;41.97;62.47;;
84579;Laerm;74804;52.100;5.116;2023-12-14T06:34:48;50.24;41.73;59.71;;
84579;Laerm;74804;52.100;5.116;2023-12-14T06:37:20;48.48;43.75;53.94;;
84579;Laerm;74804;52.100;5.116;2023-12-14T06:39:51;48.84;40.68;53.46;;
84579;Laerm;74804;52.100;5.116;2023-12-14T06:42:22;49.00;39.40;54.57;;
84579;Laerm;74804;52.100;5.116;2023-12-14T06:44:57;46.07;40.45;60.27;;
84579;Laerm;74804;52.100;5.116;2023-12-14T06:47:29;43.16;37.34;56.17;;
84579;Laerm;74804;52.100;5.116;2023-12-14T06:50:00;40.50;36.71;50.68;;
84579;Laerm;74804;52.100;5.116;2023-12-14T06:52:31;42.71;35.68;55.65;;
84579;Laerm;74804;52.100;5.116;2023-12-14T06:55:02;39.95;36.11;48.20;;
84579;Laerm;74804;52.100;5.116;2023-12-14T06:57:34;45.49;37.32;62.53;;
84579;Laerm;74804;52.100;5.116;2023-12-14T07:00:09;48.07;39.17;54.39;;
84579;Laerm;74804;52.100;5.116;2023-12-14T07:02:41;47.50;39.29;53.10;;
84579;Laerm;74804;52.100;5.116;2023-12-14T07:05:13;42.39;38.68;49.26;;
84579;Laerm;74804;52.100;5.116;2023-12-14T07:07:44;41.73;37.70;50.53;;
84579;Laerm;74804;52.100;5.116;2023-12-14T07:10:15;42.47;38.36;49.05;;
84579;Laerm;74804;52.100;5.116;2023-12-14T07:12:46;44.92;38.52;61.01;;
84579;Laerm;74804;52.100;5.116;2023-12-14T07:15:20;42.99;38.74;54.04;;
84579;Laerm;74804;52.100;5.116;2023-12-14T07:17:51;48.78;39.28;61.64;;
84579;Laerm;74804;52.100;5.116;2023-12-14T07:20:22;47.61;38.96;65.04;;
84579;Laerm;74804;52.100;5.116;2023-12-14T07:22:54;45.90;40.10;57.52;;
84579;Laerm;74804;52.100;5.116;2023-12-14T07:25:25;44.75;37.91;60.78;;
84579;Laerm;74804;52.100;5.116;2023-12-14T07:27:56;45.53;37.00;68.79;;
84579;Laerm;74804;52.100;5.116;2023-12-14T07:30:30;44.29;37.29;62.21;;
84579;Laerm;74804;52.100;5.116;2023-12-14T07:33:01;50.98;37.10;66.24;;
84579;Laerm;74804;52.100;5.116;2023-12-14T07:35:32;47.25;39.06;62.58;;
84579;Laerm;74804;52.100;5.116;2023-12-14T07:38:03;44.73;38.86;56.14;;
84579;Laerm;74804;52.100;5.116;2023-12-14T07:40:35;45.87;38.30;58.80;;
84579;Laerm;74804;52.100;5.116;2023-12-14T07:43:06;46.31;37.17;60.15;;
84579;Laerm;74804;52.100;5.116;2023-12-14T07:45:40;44.14;37.03;58.98;;
84579;Laerm;74804;52.100;5.116;2023-12-14T07:48:11;43.29;37.50;62.99;;
84579;Laerm;74804;52.100;5.116;2023-12-14T07:50:42;43.57;36.05;56.24;;
84579;Laerm;74804;52.100;5.116;2023-12-14T07:53:14;42.68;37.20;55.66;;
84579;Laerm;74804;52.100;5.116;2023-12-14T07:55:45;53.02;37.29;73.71;;
84579;Laerm;74804;52.100;5.116;2023-12-14T07:58:16;44.85;37.59;59.25;;
84579;Laerm;74804;52.100;5.116;2023-12-14T08:00:51;46.50;38.26;64.77;;
84579;Laerm;74804;52.100;5.116;2023-12-14T08:03:22;43.66;37.37;54.72;;
84579;Laerm;74804;52.100;5.116;2023-12-14T08:05:54;44.65;37.72;67.64;;
84579;Laerm;74804;52.100;5.116;2023-12-14T08:08:25;43.57;37.60;54.05;;
84579;Laerm;74804;52.100;5.116;2023-12-14T08:10:56;44.61;36.05;63.64;;
84579;Laerm;74804;52.100;5.116;2023-12-14T08:13:28;41.90;36.48;52.55;;
84579;Laerm;74804;52.100;5.116;2023-12-14T08:16:02;44.76;36.76;56.55;;
84579;Laerm;74804;52.100;5.116;2023-12-14T08:18:34;44.14;37.06;56.75;;
84579;Laerm;74804;52.100;5.116;2023-12-14T08:21:05;49.15;39.93;63.90;;
84579;Laerm;74804;52.100;5.116;2023-12-14T08:23:36;48.21;37.98;59.07;;
84579;Laerm;74804;52.100;5.116;2023-12-14T08:26:08;44.45;36.88;64.69;;
84579;Laerm;74804;52.100;5.116;2023-12-14T08:28:40;43.57;36.69;56.64;;
84579;Laerm;74804;52.100;5.116;2023-12-14T08:31:14;42.57;36.20;50.27;;
84579;Laerm;74804;52.100;5.116;2023-12-14T08:33:45;41.92;36.78;61.33;;
84579;Laerm;74804;52.100;5.116;2023-12-14T08:36:16;42.67;36.42;51.73;;
84579;Laerm;74804;52.100;5.116;2023-12-14T08:38:45;46.82;39.11;66.16;;
84579;Laerm;74804;52.100;5.116;2023-12-14T08:41:17;46.09;39.78;62.31;;
84579;Laerm;74804;52.100;5.116;2023-12-14T08:43:48;43.67;36.67;52.09;;
84579;Laerm;74804;52.100;5.116;2023-12-14T08:46:22;43.17;37.45;59.11;;
84579;Laerm;74804;52.100;5.116;2023-12-14T08:48:53;42.58;36.26;52.47;;
84579;Laerm;74804;52.100;5.116;2023-12-14T08:51:24;42.33;36.67;53.58;;
84579;Laerm;74804;52.100;5.116;2023-12-14T08:53:57;42.77;35.87;65.25;;
84579;Laerm;74804;52.100;5.116;2023-12-14T08:56:28;42.10;36.66;50.64;;
84579;Laerm;74804;52.100;5.116;2023-12-14T08:58:59;46.06;37.25;56.43;;
84579;Laerm;74804;52.100;5.116;2023-12-14T09:01:34;41.30;36.76;53.93;;
84579;Laerm;74804;52.100;5.116;2023-12-14T09:04:05;52.93;38.99;66.60;;
84579;Laerm;74804;52.100;5.116;2023-12-14T09:06:36;54.51;48.35;68.22;;
84579;Laerm;74804;52.100;5.116;2023-12-14T09:09:09;52.40;38.36;74.24;;
84579;Laerm;74804;52.100;5.116;2023-12-14T09:11:41;43.79;37.39;56.69;;
84579;Laerm;74804;52.100;5.116;2023-12-14T09:14:12;43.48;37.12;61.04;;
84579;Laerm;74804;52.100;5.116;2023-12-14T09:16:46;46.92;37.45;62.98;;
84579;Laerm;74804;52.100;5.116;2023-12-14T09:19:17;43.47;38.59;54.53;;
84579;Laerm;74804;52.100;5.116;2023-12-14T09:21:48;48.25;38.83;62.40;;
84579;Laerm;74804;52.100;5.116;2023-12-14T09:24:19;45.27;39.23;56.10;;
84579;Laerm;74804;52.100;5.116;2023-12-14T09:26:51;40.82;35.17;48.24;;
84579;Laerm;74804;52.100;5.116;2023-12-14T09:29:22;42.98;36.06;58.92;;
84579;Laerm;74804;52.100;5.116;2023-12-14T09:31:56;44.77;37.58;61.47;;
84579;Laerm;74804;52.100;5.116;2023-12-14T09:34:27;44.83;35.37;55.10;;
84579;Laerm;74804;52.100;5.116;2023-12-14T09:36:58;46.56;38.19;64.72;;
84579;Laerm;74804;52.100;5.116;2023-12-14T09:39:29;45.44;37.27;60.97;;
84579;Laerm;74804;52.100;5.116;2023-12-14T09:42:01;50.68;40.43;65.50;;
84579;Laerm;74804;52.100;5.116;2023-12-14T09:44:33;43.56;37.68;53.51;;
84579;Laerm;74804;52.100;5.116;2023-12-14T09:47:08;48.80;40.14;55.84;;
84579;Laerm;74804;52.100;5.116;2023-12-14T09:49:39;43.33;35.77;55.74;;
84579;Laerm;74804;52.100;5.116;2023-12-14T09:52:12;43.12;36.17;60.59;;
84579;Laerm;74804;52.100;5.116;2023-12-14T09:54:43;42.72;36.90;53.15;;
84579;Laerm;74804;52.100;5.116;2023-12-14T09:57:14;43.59;36.16;65.09;;
84579;Laerm;74804;52.100;5.116;2023-12-14T09:59:50;42.59;37.07;53.06;;
84579;Laerm;74804;52.100;5.116;2023-12-14T10:02:27;45.77;37.54;59.60;;
84579;Laerm;74804;52.100;5.116;2023-12-14T10:04:58;43.83;35.89;56.32;;
84579;Laerm;74804;52.100;5.116;2023-12-14T10:07:30;47.36;35.30;62.13;;
84579;Laerm;74804;52.100;5.116;2023-12-14T10:10:09;45.22;34.20;60.69;;
84579;Laerm;74804;52.100;5.116;2023-12-14T10:12:50;47.63;34.61;63.00;;
84579;Laerm;74804;52.100;5.116;2023-12-14T10:15:21;44.78;37.07;61.85;;
84579;Laerm;74804;52.100;5.116;2023-12-14T10:17:55;42.02;36.02;50.49;;
84579;Laerm;74804;52.100;5.116;2023-12-14T10:20:27;46.50;35.95;64.01;;
84579;Laerm;74804;52.100;5.116;2023-12-14T10:22:58;50.14;36.20;62.27;;
84579;Laerm;74804;52.100;5.116;2023-12-14T10:25:30;46.35;36.26;55.72;;
84579;Laerm;74804;52.100;5.116;2023-12-14T10:28:01;43.31;35.22;59.86;;
84579;Laerm;74804;52.100;5.116;2023-12-14T10:30:32;41.01;34.60;50.73;;
84579;Laerm;74804;52.100;5.116;2023-12-14T10:33:06;43.96;35.15;56.52;;
84579;Laerm;74804;52.100;5.116;2023-12-14T10:35:37;45.47;33.48;59.08;;
84579;Laerm;74804;52.100;5.116;2023-12-14T10:38:09;45.06;34.41;63.64;;
84579;Laerm;74804;52.100;5.116;2023-12-14T10:40:42;45.14;34.43;60.09;;
84579;Laerm;74804;52.100;5.116;2023-12-14T10:43:14;43.74;34.78;64.05;;
84579;Laerm;74804;52.100;5.116;2023-12-14T10:45:46;43.87;34.79;57.38;;
84579;Laerm;74804;52.100;5.116;2023-12-14T10:48:21;40.71;33.99;50.29;;
84579;Laerm;74804;52.100;5.116;2023-12-14T10:50:53;41.11;34.01;54.39;;
84579;Laerm;74804;52.100;5.116;2023-12-14T10:53:24;42.39;33.85;64.23;;
84579;Laerm;74804;52.100;5.116;2023-12-14T10:55:55;42.85;32.90;54.32;;
84579;Laerm;74804;52.100;5.116;2023-12-14T10:58:30;43.79;34.53;65.19;;
84579;Laerm;74804;52.100;5.116;2023-12-14T11:01:15;41.81;32.97;57.03;;
84579;Laerm;74804;52.100;5.116;2023-12-14T11:03:49;41.48;33.66;60.62;;
84579;Laerm;74804;52.100;5.116;2023-12-14T11:06:21;46.18;34.83;61.57;;
84579;Laerm;74804;52.100;5.116;2023-12-14T11:08:59;43.30;35.95;58.96;;
84579;Laerm;74804;52.100;5.116;2023-12-14T11:11:40;44.07;36.66;61.24;;
84579;Laerm;74804;52.100;5.116;2023-12-14T11:14:12;39.80;33.16;52.84;;
84579;Laerm;74804;52.100;5.116;2023-12-14T11:16:46;41.49;34.62;57.87;;
84579;Laerm;74804;52.100;5.116;2023-12-14T11:19:30;42.58;35.09;58.38;;
84579;Laerm;74804;52.100;5.116;2023-12-14T11:22:23;41.33;34.50;59.24;;
84579;Laerm;74804;52.100;5.116;2023-12-14T11:24:55;45.72;35.52;61.62;;
84579;Laerm;74804;52.100;5.116;2023-12-14T11:27:27;46.68;37.83;58.60;;
84579;Laerm;74804;52.100;5.116;2023-12-14T11:29:59;42.10;34.61;56.40;;
84579;Laerm;74804;52.100;5.116;2023-12-14T11:32:31;42.79;35.25;57.12;;
84579;Laerm;74804;52.100;5.116;2023-12-14T11:35:05;41.72;33.99;61.90;;
84579;Laerm;74804;52.100;5.116;2023-12-14T11:37:39;40.98;34.08;60.89;;
84579;Laerm;74804;52.100;5.116;2023-12-14T11:40:11;40.75;35.34;51.32;;
84579;Laerm;74804;52.100;5.116;2023-12-14T11:42:43;42.71;35.52;58.13;;
84579;Laerm;74804;52.100;5.116;2023-12-14T11:45:16;47.68;35.71;68.56;;
84579;Laerm;74804;52.100;5.116;2023-12-14T11:47:47;40.16;35.16;55.14;;
84579;Laerm;74804;52.100;5.116;2023-12-14T11:50:21;43.85;37.47;56.23;;
84579;Laerm;74804;52.100;5.116;2023-12-14T11:52:52;42.36;36.37;60.84;;
84579;Laerm;74804;52.100;5.116;2023-12-14T11:55:23;45.18;37.40;58.29;;
84579;Laerm;74804;52.100;5.116;2023-12-14T11:57:55;48.91;37.50;68.29;;
84579;Laerm;74804;52.100;5.116;2023-12-14T12:00:26;45.99;36.66;54.49;;
84579;Laerm;74804;52.100;5.116;2023-12-14T12:03:08;47.65;38.40;62.53;;
84579;Laerm;74804;52.100;5.116;2023-12-14T12:05:42;42.25;36.34;49.91;;
84579;Laerm;74804;52.100;5.116;2023-12-14T12:08:14;60.98;39.19;76.66;;
84579;Laerm;74804;52.100;5.116;2023-12-14T12:10:46;47.90;38.03;56.83;;
84579;Laerm;74804;52.100;5.116;2023-12-14T12:13:18;48.36;39.40;60.64;;
84579;Laerm;74804;52.100;5.116;2023-12-14T12:15:50;47.05;37.99;53.94;;
84579;Laerm;74804;52.100;5.116;2023-12-14T12:18:21;46.36;37.76;54.25;;
84579;Laerm;74804;52.100;5.116;2023-12-14T12:20:56;49.19;40.05;61.80;;
84579;Laerm;74804;52.100;5.116;2023-12-14T12:23:31;45.00;36.55;53.70;;
84579;Laerm;74804;52.100;5.116;2023-12-14T12:26:02;43.71;35.15;60.47;;
84579;Laerm;74804;52.100;5.116;2023-12-14T12:28:33;42.24;35.69;56.39;;
84579;Laerm;74804;52.100;5.116;2023-12-14T12:31:05;41.13;35.64;55.74;;
84579;Laerm;74804;52.100;5.116;2023-12-14T12:33:36;42.58;36.45;55.49;;
84579;Laerm;74804;52.100;5.116;2023-12-14T12:36:10;44.46;36.92;60.17;;
84579;Laerm;74804;52.100;5.116;2023-12-14T12:38:41;42.26;34.85;57.91;;
84579;Laerm;74804;52.100;5.116;2023-12-14T12:41:13;46.48;40.20;53.82;;
84579;Laerm;74804;52.100;5.116;2023-12-14T12:43:45;43.01;40.20;54.53;;
84579;Laerm;74804;52.100;5.116;2023-12-14T12:46:16;42.66;39.25;54.40;;
84579;Laerm;74804;52.100;5.116;2023-12-14T12:48:48;44.91;40.07;56.85;;
84579;Laerm;74804;52.100;5.116;2023-12-14T12:51:22;43.64;40.24;55.81;;
84579;Laerm;74804;52.100;5.116;2023-12-14T12:53:53;42.25;39.85;49.56;;
84579;Laerm;74804;52.100;5.116;2023-12-14T12:56:25;45.75;40.21;56.97;;
84579;Laerm;74804;52.100;5.116;2023-12-14T12:58:56;44.12;40.38;56.73;;
84579;Laerm;74804;52.100;5.116;2023-12-14T13:01:27;44.32;40.18;57.58;;
84579;Laerm;74804;52.100;5.116;2023-12-14T13:03:58;44.67;35.70;65.52;;
84579;Laerm;74804;52.100;5.116;2023-12-14T13:06:34;42.94;35.17;58.36;;
84579;Laerm;74804;52.100;5.116;2023-12-14T13:09:07;42.68;37.73;52.76;;
84579;Laerm;74804;52.100;5.116;2023-12-14T13:11:38;44.51;36.68;66.53;;
84579;Laerm;74804;52.100;5.116;2023-12-14T13:14:09;43.58;36.85;63.80;;
84579;Laerm;74804;52.100;5.116;2023-12-14T13:16:43;46.18;36.90;66.39;;
84579;Laerm;74804;52.100;5.116;2023-12-14T13:19:15;45.26;37.95;55.83;;
84579;Laerm;74804;52.100;5.116;2023-12-14T13:21:49;43.69;36.96;57.30;;
84579;Laerm;74804;52.100;5.116;2023-12-14T13:24:20;44.52;37.10;58.17;;
84579;Laerm;74804;52.100;5.116;2023-12-14T13:26:51;44.06;38.01;55.12;;
84579;Laerm;74804;52.100;5.116;2023-12-14T13:29:22;45.32;39.13;58.14;;
84579;Laerm;74804;52.100;5.116;2023-12-14T13:31:53;42.53;36.12;50.14;;
84579;Laerm;74804;52.100;5.116;2023-12-14T13:34:25;43.44;37.01;56.65;;
84579;Laerm;74804;52.100;5.116;2023-12-14T13:36:59;45.24;38.32;60.92;;
84579;Laerm;74804;52.100;5.116;2023-12-14T13:39:34;46.39;38.71;64.88;;
84579;Laerm;74804;52.100;5.116;2023-12-14T13:42:05;47.62;36.15;68.29;;
84579;Laerm;74804;52.100;5.116;2023-12-14T13:44:37;44.59;37.60;56.59;;
84579;Laerm;74804;52.100;5.116;2023-12-14T13:47:08;45.52;35.50;60.53;;
84579;Laerm;74804;52.100;5.116;2023-12-14T13:49:39;49.50;37.07;62.48;;
84579;Laerm;74804;52.100;5.116;2023-12-14T13:52:13;47.35;36.44;63.69;;
84579;Laerm;74804;52.100;5.116;2023-12-14T13:54:44;44.33;36.16;62.60;;
84579;Laerm;74804;52.100;5.116;2023-12-14T13:57:16;42.30;36.06;58.15;;
84579;Laerm;74804;52.100;5.116;2023-12-14T13:59:48;43.90;38.18;55.95;;
84579;Laerm;74804;52.100;5.116;2023-12-14T14:02:19;43.81;38.15;59.28;;
84579;Laerm;74804;52.100;5.116;2023-12-14T14:04:50;43.35;37.15;57.34;;
84579;Laerm;74804;52.100;5.116;2023-12-14T14:07:24;43.43;37.49;54.93;;
84579;Laerm;74804;52.100;5.116;2023-12-14T14:09:55;46.06;37.36;62.31;;
84579;Laerm;74804;52.100;5.116;2023-12-14T14:12:27;44.05;37.77;54.12;;
84579;Laerm;74804;52.100;5.116;2023-12-14T14:14:58;46.01;36.86;62.58;;